Time;durP1;ratioP1;P1;durP2;ratioP2;P2;SDS_P1;SDS_P2;PMS_P1;PMS_P2;Temp;Humidity;BMP_temperature;BMP_pressure;BME280_temperature;BME280_humidity;BME280_pressure;Samples;Min_cycle;Max_cycle;Signal;HPM_P1;HPM_P2
2022/11/13 00:01:24;;;;;;;37.53;28.80;;;;;;;;;;5111150;27;20981;-74
2022/11/13 00:03:50;;;;;;;38.67;28.23;;;;;;;;;;5097425;27;20739;-74
2022/11/13 00:06:18;;;;;;;41.67;29.45;;;5.50;99.90;;;;;;5114411;27;20475;-74
2022/11/13 00:08:44;;;;;;;38.67;29.02;;;;;;;;;;5096586;28;20832;-74
2022/11/13 00:11:14;;;;;;;40.67;29.92;;;;;;;;;;5127095;27;20410;-74
2022/11/13 00:13:42;;;;;;;47.92;34.10;;;;;;;;;;5096489;28;20412;-74
2022/11/13 00:16:12;;;;;;;46.88;33.28;;;5.60;99.90;;;;;;5110466;28;20407;-74
2022/11/13 00:18:38;;;;;;;47.55;32.95;;;;;;;;;;5076641;28;20463;-74
2022/11/13 00:21:05;;;;;;;49.30;33.95;;;5.60;99.90;;;;;;5103985;28;20422;-74
2022/11/13 00:23:35;;;;;;;48.97;35.03;;;;;;;;;;5111335;28;20416;-74
2022/11/13 00:26:08;;;;;;;46.92;33.67;;;5.70;99.90;;;;;;5106420;28;20509;-74
2022/11/13 00:28:35;;;;;;;49.15;34.80;;;;;;;;;;5113008;28;20430;-74
2022/11/13 00:31:02;;;;;;;52.45;35.63;;;5.90;99.90;;;;;;5111834;28;20910;-74
2022/11/13 00:33:28;;;;;;;51.42;36.63;;;;;;;;;;5113919;28;20430;-74
2022/11/13 00:35:54;;;;;;;51.63;35.83;;;;;;;;;;5094848;28;20490;-74
2022/11/13 00:38:20;;;;;;;51.00;36.95;;;;;;;;;;5109488;28;20429;-74
2022/11/13 00:40:46;;;;;;;50.15;34.95;;;;;;;;;;5108077;28;20451;-74
2022/11/13 00:43:12;;;;;;;45.00;33.45;;;;;;;;;;5096451;28;20414;-74
2022/11/13 00:45:38;;;;;;;49.42;37.22;;;;;;;;;;5112695;28;20421;-74
2022/11/13 00:48:04;;;;;;;55.90;39.17;;;;;;;;;;5096472;28;20403;-74
2022/11/13 00:50:30;;;;;;;57.33;39.45;;;;;;;;;;5095334;28;20419;-74
2022/11/13 00:52:56;;;;;;;56.67;40.25;;;;;;;;;;5112795;28;20556;-74
2022/11/13 00:55:22;;;;;;;56.85;40.65;;;;;;;;;;5089563;28;20439;-74
2022/11/13 00:57:49;;;;;;;56.50;40.53;;;;;;;;;;5111923;28;20446;-74
2022/11/13 01:00:15;;;;;;;56.42;39.45;;;;;;;;;;5110743;28;20470;-74
2022/11/13 01:02:41;;;;;;;54.13;37.53;;;;;;;;;;5108516;28;21021;-74
2022/11/13 01:05:07;;;;;;;53.65;37.88;;;;;;;;;;5076508;28;20814;-74
2022/11/13 01:07:36;;;;;;;49.33;35.97;;;6.00;99.90;;;;;;5108762;28;20420;-74
2022/11/13 01:10:06;;;;;;;48.45;34.72;;;5.90;99.90;;;;;;5094377;28;20760;-74
2022/11/13 01:12:32;;;;;;;46.90;34.03;;;;;;;;;;5095663;28;20500;-74
2022/11/13 01:14:58;;;;;;;50.30;36.10;;;;;;;;;;5112204;28;20422;-74
2022/11/13 01:17:24;;;;;;;47.00;34.25;;;;;;;;;;5111649;28;20415;-74
2022/11/13 01:19:50;;;;;;;48.13;35.30;;;;;;;;;;5096284;27;20422;-74
2022/11/13 01:22:16;;;;;;;47.42;33.65;;;;;;;;;;5115067;27;20417;-74
2022/11/13 01:24:42;;;;;;;46.85;34.13;;;;;;;;;;5116927;27;20474;-74
2022/11/13 01:27:08;;;;;;;50.65;35.70;;;;;;;;;;5095355;28;20446;-74
2022/11/13 01:29:35;;;;;;;49.25;36.13;;;;;;;;;;5094574;27;20470;-74
2022/11/13 01:32:01;;;;;;;48.72;35.22;;;;;;;;;;5116171;27;20434;-74
2022/11/13 01:34:27;;;;;;;44.25;33.35;;;;;;;;;;5116459;27;20422;-73
2022/11/13 01:36:53;;;;;;;46.47;34.25;;;;;;;;;;5113758;27;20762;-73
2022/11/13 01:39:19;;;;;;;44.83;32.80;;;;;;;;;;5093278;27;20412;-73
2022/11/13 01:41:45;;;;;;;46.67;33.95;;;;;;;;;;5097900;27;20929;-73
2022/11/13 01:44:15;;;;;;;47.00;32.90;;;6.20;99.90;;;;;;5116794;27;20403;-74
2022/11/13 01:46:44;;;;;;;46.03;32.95;;;6.50;99.90;;;;;;5134132;27;20425;-74
2022/11/13 01:49:10;;;;;;;42.70;32.53;;;;;;;;;;5115103;27;20791;-73
2022/11/13 01:51:42;;;;;;;43.25;32.00;;;;;;;;;;5113417;27;20437;-74
2022/11/13 01:54:14;;;;;;;43.42;32.20;;;6.20;99.90;;;;;;5115841;27;20418;-73
2022/11/13 01:56:40;;;;;;;46.50;33.73;;;;;;;;;;5114512;27;20517;-74
2022/11/13 01:59:13;;;;;;;55.88;36.22;;;;;;;;;;5114824;27;20425;-73
2022/11/13 02:01:40;;;;;;;45.85;33.00;;;;;;;;;;5113719;27;20419;-73
2022/11/13 02:04:06;;;;;;;43.22;32.50;;;;;;;;;;5094564;27;20451;-74
2022/11/13 02:07:03;;;;;;;43.70;30.65;;;6.30;99.90;;;;;;5114635;27;20418;-74
2022/11/13 02:09:49;;;;;;;44.15;32.10;;;;;;;;;;5122039;27;20423;-73
2022/11/13 02:12:16;;;;;;;36.30;29.08;;;;;;;;;;5116176;27;20407;-73
2022/11/13 02:14:46;;;;;;;37.97;28.70;;;6.40;99.90;;;;;;5094810;28;20655;-73
2022/11/13 02:17:24;;;;;;;38.78;28.85;;;;;;;;;;5079754;27;20405;-74
2022/11/13 02:19:52;;;;;;;35.80;28.05;;;;;;;;;;5095988;27;20446;-73
2022/11/13 02:22:41;;;;;;;34.58;28.13;;;6.50;99.90;;;;;;5094705;28;20426;-73
2022/11/13 02:25:09;;;;;;;36.93;26.60;;;6.70;99.90;;;;;;5079262;28;20412;-74
2022/11/13 02:27:47;;;;;;;36.47;26.45;;;6.60;99.90;;;;;;5113572;27;20410;-74
2022/11/13 02:30:22;;;;;;;36.53;26.23;;;6.80;99.90;;;;;;5130475;27;20410;-74
2022/11/13 02:32:51;;;;;;;34.95;26.90;;;6.80;99.90;;;;;;5108904;27;20411;-73
2022/11/13 02:35:29;;;;;;;34.08;26.48;;;;;;;;;;5115131;27;20425;-74
2022/11/13 02:37:56;;;;;;;36.65;26.17;;;;;;;;;;5113965;27;20423;-74
2022/11/13 02:40:23;;;;;;;36.92;27.38;;;;;;;;;;5113856;27;20422;-74
2022/11/13 02:42:49;;;;;;;37.85;27.73;;;;;;;;;;5113826;27;20399;-73
2022/11/13 02:45:15;;;;;;;36.90;27.83;;;;;;;;;;5114440;27;20424;-74
2022/11/13 02:47:41;;;;;;;38.97;29.83;;;;;;;;;;5096470;27;20420;-74
2022/11/13 02:50:09;;;;;;;39.22;30.30;;;;;;;;;;5114817;27;20406;-73
2022/11/13 02:52:35;;;;;;;42.90;29.90;;;6.70;99.90;;;;;;5115322;27;20410;-74
2022/11/13 02:55:01;;;;;;;37.70;29.40;;;;;;;;;;5113900;27;20411;-73
2022/11/13 02:57:27;;;;;;;43.23;30.53;;;;;;;;;;5113458;27;20563;-74
2022/11/13 02:59:53;;;;;;;42.92;31.08;;;;;;;;;;5098302;27;20961;-73
2022/11/13 03:02:19;;;;;;;41.47;30.95;;;;;;;;;;5113753;27;20445;-74
2022/11/13 03:04:45;;;;;;;40.57;30.00;;;;;;;;;;5114028;27;20463;-74
2022/11/13 03:07:12;;;;;;;42.70;30.70;;;;;;;;;;5096830;27;20450;-73
2022/11/13 03:09:38;;;;;;;42.20;30.98;;;;;;;;;;5097417;27;20509;-73
2022/11/13 03:12:05;;;;;;;43.05;31.25;;;;;;;;;;5097540;27;20475;-74
2022/11/13 03:14:31;;;;;;;43.67;31.55;;;;;;;;;;5096011;27;20446;-74
2022/11/13 03:16:57;;;;;;;43.33;31.52;;;;;;;;;;5112283;27;20479;-74
2022/11/13 03:19:23;;;;;;;43.92;32.33;;;;;;;;;;5113884;27;20422;-73
2022/11/13 03:21:49;;;;;;;45.05;31.95;;;;;;;;;;5098009;27;20391;-73
2022/11/13 03:24:15;;;;;;;43.95;31.95;;;;;;;;;;5115186;27;20788;-73
2022/11/13 03:26:41;;;;;;;45.47;33.15;;;;;;;;;;5113401;27;20837;-73
2022/11/13 03:29:07;;;;;;;45.20;32.67;;;;;;;;;;5126761;27;20774;-73
2022/11/13 03:31:33;;;;;;;47.65;33.28;;;;;;;;;;5115135;27;20921;-74
2022/11/13 03:33:59;;;;;;;45.15;32.88;;;;;;;;;;5097402;27;20975;-73
2022/11/13 03:36:25;;;;;;;51.05;35.00;;;;;;;;;;5112732;27;20433;-73
2022/11/13 03:38:51;;;;;;;49.80;35.53;;;;;;;;;;5113082;27;20419;-74
2022/11/13 03:41:18;;;;;;;53.95;36.45;;;;;;;;;;5113529;27;20425;-73
2022/11/13 03:43:44;;;;;;;48.30;34.67;;;;;;;;;;5112151;27;20444;-73
2022/11/13 03:46:10;;;;;;;49.05;34.63;;;;;;;;;;5095157;27;20437;-73
2022/11/13 03:48:36;;;;;;;50.53;35.15;;;;;;;;;;5091692;28;20428;-73
2022/11/13 03:51:02;;;;;;;50.50;35.58;;;;;;;;;;5094194;28;20948;-73
2022/11/13 03:53:28;;;;;;;50.45;35.13;;;;;;;;;;5091320;27;20428;-73
2022/11/13 03:55:54;;;;;;;50.03;35.80;;;;;;;;;;5104124;28;20424;-73
2022/11/13 03:58:20;;;;;;;47.50;34.83;;;;;;;;;;5113280;27;20446;-73
2022/11/13 04:00:47;;;;;;;45.88;33.83;;;;;;;;;;5107425;28;20423;-73
2022/11/13 04:03:13;;;;;;;50.33;34.60;;;;;;;;;;5109519;27;20490;-73
2022/11/13 04:05:39;;;;;;;49.28;33.70;;;;;;;;;;5096675;27;20421;-73
2022/11/13 04:08:05;;;;;;;44.97;32.40;;;;;;;;;;5112678;27;20490;-74
2022/11/13 04:10:31;;;;;;;44.90;33.00;;;;;;;;;;5128851;27;20421;-73
2022/11/13 04:12:58;;;;;;;43.60;31.92;;;;;;;;;;5094463;27;20429;-73
2022/11/13 04:15:24;;;;;;;44.05;31.30;;;;;;;;;;5079699;28;21061;-74
2022/11/13 04:17:50;;;;;;;45.50;31.60;;;;;;;;;;5093921;28;20396;-73
2022/11/13 04:20:16;;;;;;;41.92;31.38;;;;;;;;;;5111032;28;20418;-73
2022/11/13 04:22:42;;;;;;;43.65;31.17;;;;;;;;;;5114029;28;20395;-73
2022/11/13 04:25:08;;;;;;;43.20;31.98;;;;;;;;;;5109016;28;20424;-74
2022/11/13 04:27:35;;;;;;;42.53;30.30;;;;;;;;;;5104217;28;20822;-73
2022/11/13 04:30:01;;;;;;;39.40;29.50;;;;;;;;;;5113112;28;20463;-73
2022/11/13 04:32:27;;;;;;;38.42;29.40;;;;;;;;;;5100145;28;20457;-73
2022/11/13 04:34:53;;;;;;;39.45;29.33;;;;;;;;;;5113899;28;20402;-73
2022/11/13 04:37:19;;;;;;;39.10;29.13;;;;;;;;;;5113926;28;20408;-74
2022/11/13 04:39:45;;;;;;;43.67;29.70;;;;;;;;;;5109133;28;20936;-73
2022/11/13 04:44:57;;;;;;;41.37;29.10;;;;;;;;;;5110254;28;20504;-73
2022/11/13 04:47:23;;;;;;;40.20;29.83;;;;;;;;;;5110395;28;20403;-74
2022/11/13 04:49:49;;;;;;;39.38;29.48;;;;;;;;;;5108463;28;21000;-73
2022/11/13 04:52:15;;;;;;;39.23;29.20;;;;;;;;;;5108472;28;20946;-74
2022/11/13 04:54:41;;;;;;;37.80;29.20;;;;;;;;;;5107476;28;20920;-73
2022/11/13 04:57:07;;;;;;;40.63;28.85;;;;;;;;;;5096707;28;20942;-74
2022/11/13 04:59:33;;;;;;;39.40;28.63;;;;;;;;;;5113274;28;20448;-73
2022/11/13 05:01:59;;;;;;;38.75;28.50;;;;;;;;;;5076771;28;20413;-74
2022/11/13 05:04:25;;;;;;;38.72;28.33;;;;;;;;;;5079802;28;20449;-74
2022/11/13 05:06:51;;;;;;;40.72;28.35;;;;;;;;;;5106743;28;20617;-74
2022/11/13 05:09:17;;;;;;;41.30;28.95;;;;;;;;;;5112165;28;20431;-74
2022/11/13 05:11:43;;;;;;;85.80;38.53;;;;;;;;;;5114063;28;20400;-74
2022/11/13 05:14:11;;;;;;;50.03;35.50;;;;;;;;;;5111808;28;20428;-73
2022/11/13 05:16:37;;;;;;;72.37;40.27;;;;;;;;;;5114209;28;20767;-74
2022/11/13 05:19:06;;;;;;;150.45;48.70;;;;;;;;;;5095895;28;20424;-73
2022/11/13 05:21:36;;;;;;;70.75;48.38;;;;;;;;;;5110846;28;20420;-73
2022/11/13 05:24:03;;;;;;;62.42;36.72;;;;;;;;;;5111170;28;20452;-73
2022/11/13 05:26:29;;;;;;;43.10;30.57;;;;;;;;;;5091030;28;20413;-73
2022/11/13 05:28:59;;;;;;;43.70;31.35;;;;;;;;;;5093338;28;20402;-74
2022/11/13 05:31:25;;;;;;;43.17;33.05;;;;;;;;;;5092374;28;20426;-73
2022/11/13 05:33:52;;;;;;;40.90;31.20;;;;;;;;;;5097550;28;20896;-74
2022/11/13 05:36:18;;;;;;;43.80;31.40;;;;;;;;;;5110128;28;20558;-74
2022/11/13 05:38:45;;;;;;;41.20;29.77;;;;;;;;;;5112283;28;20465;-74
2022/11/13 05:41:13;;;;;;;91.90;33.72;;;;;;;;;;5111826;28;20411;-73
2022/11/13 05:43:39;;;;;;;40.83;29.48;;;;;;;;;;5113362;28;20400;-74
2022/11/13 05:46:07;;;;;;;37.53;29.58;;;;;;;;;;5111335;28;20435;-74
2022/11/13 05:48:34;;;;;;;49.17;30.45;;;;;;;;;;5084814;28;20424;-73
2022/11/13 05:51:01;;;;;;;45.50;32.15;;;;;;;;;;5107385;28;20418;-73
2022/11/13 05:53:28;;;;;;;40.75;29.85;;;;;;;;;;5103855;28;20431;-73
2022/11/13 05:55:54;;;;;;;41.10;29.70;;;;;;;;;;5113116;28;20404;-73
2022/11/13 05:58:20;;;;;;;45.03;30.65;;;;;;;;;;5075016;28;20422;-73
2022/11/13 06:00:46;;;;;;;36.75;27.08;;;;;;;;;;5078273;28;20499;-74
2022/11/13 06:03:12;;;;;;;39.30;27.85;;;;;;;;;;5109790;28;20767;-73
2022/11/13 06:05:38;;;;;;;40.57;28.97;;;;;;;;;;5077458;28;20416;-74
2022/11/13 06:08:04;;;;;;;40.80;30.10;;;;;;;;;;5107981;28;20423;-74
2022/11/13 06:10:30;;;;;;;41.83;29.83;;;;;;;;;;5109266;28;20416;-73
2022/11/13 06:12:56;;;;;;;42.83;29.67;;;;;;;;;;5092451;28;20973;-74
2022/11/13 06:15:22;;;;;;;39.28;29.20;;;;;;;;;;5112684;28;20443;-73
2022/11/13 06:17:48;;;;;;;44.05;30.25;;;;;;;;;;5109598;28;20417;-74
2022/11/13 06:20:15;;;;;;;40.85;30.35;;;;;;;;;;5089765;28;20468;-74
2022/11/13 06:22:41;;;;;;;41.75;28.75;;;;;;;;;;5095015;28;20408;-74
2022/11/13 06:25:07;;;;;;;44.72;30.50;;;;;;;;;;5059809;28;20414;-74
2022/11/13 06:27:33;;;;;;;42.97;29.92;;;;;;;;;;5111695;28;20412;-74
2022/11/13 06:29:59;;;;;;;45.33;30.23;;;;;;;;;;5092489;28;20888;-73
2022/11/13 06:32:25;;;;;;;44.30;31.23;;;;;;;;;;5094381;28;20404;-74
2022/11/13 06:34:51;;;;;;;45.78;32.30;;;;;;;;;;5111557;28;20524;-73
2022/11/13 06:37:17;;;;;;;46.17;31.67;;;;;;;;;;5094472;28;20400;-74
2022/11/13 06:39:43;;;;;;;44.05;31.35;;;;;;;;;;5089668;28;20420;-73
2022/11/13 06:42:09;;;;;;;44.95;31.67;;;;;;;;;;5115554;27;20410;-74
2022/11/13 06:44:35;;;;;;;45.13;31.60;;;;;;;;;;5113500;27;20910;-74
2022/11/13 06:47:01;;;;;;;46.45;32.75;;;;;;;;;;5113859;27;20415;-73
2022/11/13 06:49:27;;;;;;;46.83;32.20;;;;;;;;;;5110966;27;20410;-74
2022/11/13 06:51:53;;;;;;;47.50;33.20;;;;;;;;;;5096989;27;20425;-74
2022/11/13 06:54:19;;;;;;;47.65;32.67;;;;;;;;;;5115372;27;20395;-74
2022/11/13 06:56:45;;;;;;;49.45;33.13;;;;;;;;;;5112759;27;20466;-74
2022/11/13 06:59:11;;;;;;;45.88;32.28;;;;;;;;;;5084915;27;20414;-73
2022/11/13 07:01:37;;;;;;;45.42;31.10;;;;;;;;;;5112555;27;20460;-74
2022/11/13 07:04:04;;;;;;;47.13;32.78;;;;;;;;;;5103964;27;20544;-74
2022/11/13 07:06:30;;;;;;;49.08;33.17;;;;;;;;;;5112376;27;20412;-74
2022/11/13 07:08:56;;;;;;;53.80;38.40;;;;;;;;;;5096675;27;20913;-74
2022/11/13 07:11:23;;;;;;;54.90;38.08;;;;;;;;;;5094185;27;20759;-74
2022/11/13 07:13:49;;;;;;;60.80;43.83;;;;;;;;;;5109616;27;20774;-74
2022/11/13 07:16:16;;;;;;;62.28;40.80;;;;;;;;;;5097013;27;20419;-74
2022/11/13 07:18:42;;;;;;;52.40;36.70;;;;;;;;;;5112311;27;20457;-74
2022/11/13 07:21:09;;;;;;;46.78;33.00;;;;;;;;;;5129762;27;20410;-74
2022/11/13 07:23:38;;;;;;;48.83;32.50;;;;;;;;;;5097884;27;20390;-74
2022/11/13 07:26:05;;;;;;;44.97;32.22;;;;;;;;;;5096600;27;20483;-74
2022/11/13 07:28:31;;;;;;;43.42;31.83;;;;;;;;;;5112808;27;20418;-75
2022/11/13 07:30:58;;;;;;;45.00;31.05;;;;;;;;;;5092364;27;21003;-75
2022/11/13 07:33:24;;;;;;;47.33;31.65;;;;;;;;;;5108630;27;20917;-75
2022/11/13 07:35:50;;;;;;;41.45;29.38;;;;;;;;;;5110992;27;20923;-75
2022/11/13 07:38:16;;;;;;;43.92;29.63;;;;;;;;;;5114042;27;20787;-75
2022/11/13 07:40:42;;;;;;;36.92;27.77;;;;;;;;;;5093617;28;20485;-75
2022/11/13 07:43:08;;;;;;;36.97;26.50;;;;;;;;;;5107206;27;20418;-75
2022/11/13 07:45:34;;;;;;;35.35;26.17;;;;;;;;;;5108811;27;20427;-75
2022/11/13 07:48:01;;;;;;;38.55;26.10;;;;;;;;;;5113641;27;20437;-76
2022/11/13 07:50:28;;;;;;;34.97;23.88;;;;;;;;;;5112544;27;20797;-75
2022/11/13 07:52:56;;;;;;;31.30;23.83;;;;;;;;;;5090097;27;20426;-75
2022/11/13 07:55:22;;;;;;;32.10;22.80;;;;;;;;;;5098352;27;20490;-75
2022/11/13 07:57:48;;;;;;;30.33;22.98;;;;;;;;;;5092759;27;20941;-76
2022/11/13 08:00:14;;;;;;;30.77;22.42;;;;;;;;;;5112743;27;20408;-75
2022/11/13 08:02:40;;;;;;;29.95;22.58;;;;;;;;;;5096543;27;20422;-75
2022/11/13 08:05:07;;;;;;;29.20;22.38;;;;;;;;;;5094344;27;20406;-75
2022/11/13 08:07:33;;;;;;;29.48;21.48;;;;;;;;;;5097836;27;20555;-75
2022/11/13 08:09:59;;;;;;;29.13;21.58;;;;;;;;;;5110972;27;20501;-75
2022/11/13 08:12:25;;;;;;;28.30;20.63;;;;;;;;;;5112614;28;20557;-75
2022/11/13 08:14:51;;;;;;;25.88;20.42;;;;;;;;;;5096171;27;20429;-76
2022/11/13 08:17:17;;;;;;;27.20;20.08;;;;;;;;;;5110171;28;20425;-75
2022/11/13 08:19:43;;;;;;;24.60;19.50;;;;;;;;;;5109387;27;20495;-76
2022/11/13 08:22:09;;;;;;;26.08;19.98;;;;;;;;;;5091836;28;20768;-76
2022/11/13 08:24:35;;;;;;;25.90;20.13;;;;;;;;;;5104350;28;20416;-74
2022/11/13 08:27:01;;;;;;;28.60;21.20;;;;;;;;;;5111114;28;20414;-75
2022/11/13 08:29:27;;;;;;;27.23;20.98;;;;;;;;;;5110705;27;20419;-75
2022/11/13 08:31:53;;;;;;;26.30;20.50;;;;;;;;;;5118344;27;20403;-75
2022/11/13 08:34:20;;;;;;;26.63;20.05;;;;;;;;;;5101162;27;20405;-75
2022/11/13 08:36:48;;;;;;;27.20;20.85;;;;;;;;;;5097757;27;20418;-76
2022/11/13 08:39:14;;;;;;;28.33;21.10;;;;;;;;;;5116960;27;20414;-75
2022/11/13 08:41:40;;;;;;;25.50;19.50;;;;;;;;;;5116050;27;20401;-76
2022/11/13 08:44:06;;;;;;;26.95;19.90;;;;;;;;;;5099443;27;20501;-76
2022/11/13 08:46:32;;;;;;;24.25;19.10;;;;;;;;;;5117675;27;20409;-77
2022/11/13 08:48:58;;;;;;;26.48;21.10;;;;;;;;;;5098700;27;20410;-75
2022/11/13 08:51:24;;;;;;;26.98;21.08;;;;;;;;;;5105682;27;20421;-76
2022/11/13 08:53:50;;;;;;;26.55;20.58;;;;;;;;;;5096265;27;20445;-76
2022/11/13 08:56:16;;;;;;;26.17;19.88;;;;;;;;;;5115107;27;20418;-76
2022/11/13 08:58:43;;;;;;;23.67;17.42;;;;;;;;;;5098373;27;20424;-76
2022/11/13 09:01:09;;;;;;;24.08;18.13;;;;;;;;;;5099803;27;20486;-76
2022/11/13 09:03:35;;;;;;;20.55;16.77;;;;;;;;;;5113051;27;20417;-76
2022/11/13 09:06:10;;;;;;;20.67;16.20;;;;;;;;;;5095076;27;20776;-76
2022/11/13 09:08:36;;;;;;;19.38;16.17;;;;;;;;;;5095911;28;20428;-75
2022/11/13 09:11:04;;;;;;;19.50;15.13;;;;;;;;;;5114236;27;20422;-76
2022/11/13 09:13:31;;;;;;;18.58;15.23;;;;;;;;;;5115543;27;20418;-76
2022/11/13 09:15:58;;;;;;;18.08;14.20;;;;;;;;;;5113751;27;21002;-75
2022/11/13 09:18:24;;;;;;;17.00;14.07;;;;;;;;;;5120847;27;20704;-75
2022/11/13 09:20:50;;;;;;;17.52;13.30;;;;;;;;;;5103873;27;20412;-75
2022/11/13 09:23:16;;;;;;;16.17;13.35;;;;;;;;;;5097115;27;20497;-77
2022/11/13 09:25:42;;;;;;;16.23;12.37;;;;;;;;;;5112710;27;20434;-77
2022/11/13 09:28:10;;;;;;;16.65;12.70;;;;;;;;;;5095819;27;20446;-77
2022/11/13 09:30:38;;;;;;;14.27;11.93;;;;;;;;;;5113128;27;20406;-77
2022/11/13 09:33:04;;;;;;;14.00;11.25;;;;;;;;;;5111488;27;20410;-76
2022/11/13 09:35:34;;;;;;;14.48;11.18;;;9.90;99.90;;;;;;5116852;27;20406;-76
2022/11/13 09:38:01;;;;;;;15.82;11.20;;;;;;;;;;5093893;27;20499;-77
2022/11/13 09:40:30;;;;;;;13.57;11.23;;;;;;;;;;5115090;27;20418;-76
2022/11/13 09:42:56;;;;;;;14.77;11.23;;;;;;;;;;5114776;27;20407;-76
2022/11/13 09:45:22;;;;;;;13.20;10.82;;;;;;;;;;5095879;27;20477;-77
2022/11/13 09:47:50;;;;;;;14.27;10.93;;;10.40;99.90;;;;;;5095910;27;20944;-77
2022/11/13 09:50:22;;;;;;;14.05;10.45;;;10.60;99.90;;;;;;5112887;27;20804;-77
2022/11/13 09:52:48;;;;;;;14.05;10.50;;;10.60;99.90;;;;;;5099782;27;20415;-76
2022/11/13 09:55:19;;;;;;;14.98;10.80;;;;;;;;;;5109600;27;20418;-76
2022/11/13 09:57:48;;;;;;;13.23;10.30;;;;;;;;;;5113988;27;20502;-77
2022/11/13 10:00:18;;;;;;;12.50;10.00;;;;;;;;;;5113340;27;20415;-77
2022/11/13 10:03:31;;;;;;;12.07;10.00;;;11.20;99.90;;;;;;5112191;27;20836;-78
2022/11/13 10:06:10;;;;;;;11.90;9.98;;;;;;;;;;5095437;27;20418;-77
2022/11/13 10:08:39;;;;;;;12.53;10.37;;;;;;;;;;5098209;27;20598;-76
2022/11/13 10:11:09;;;;;;;10.68;9.30;;;;;;;;;;5099734;27;20403;-76
2022/11/13 10:13:38;;;;;;;11.65;9.20;;;;;;;;;;5115000;27;20490;-76
2022/11/13 10:16:41;;;;;;;11.40;8.63;;;11.50;99.90;;;;;;5114435;27;20461;-76
2022/11/13 10:19:46;;;;;;;10.90;8.52;;;;;;;;;;5113280;27;20430;-74
2022/11/13 10:22:38;;;;;;;11.38;8.40;;;11.60;99.90;;;;;;5053455;28;20406;-74
2022/11/13 10:25:11;;;;;;;11.82;8.85;;;11.90;99.90;;;;;;5068599;28;20439;-74
2022/11/13 10:27:37;;;;;;;12.93;8.70;;;;;;;;;;5082894;28;20503;-74
2022/11/13 10:30:05;;;;;;;11.52;9.30;;;;;;;;;;5097442;27;20414;-73
2022/11/13 10:32:32;;;;;;;11.90;8.87;;;;;;;;;;5115068;27;20459;-73
2022/11/13 10:35:04;;;;;;;10.10;8.00;;;;;;;;;;5110227;27;20415;-73
2022/11/13 10:38:02;;;;;;;10.43;8.27;;;11.90;99.90;;;;;;5098742;27;20481;-72
2022/11/13 10:40:31;;;;;;;9.95;8.10;;;;;;;;;;5112288;27;20471;-73
2022/11/13 10:43:06;;;;;;;8.75;7.40;;;;;;;;;;5115497;27;20456;-73
2022/11/13 10:45:33;;;;;;;9.75;7.78;;;;;;;;;;5115692;27;20502;-73
2022/11/13 10:47:59;;;;;;;9.52;7.40;;;;;;;;;;5098655;27;20395;-73
2022/11/13 10:50:27;;;;;;;8.82;6.97;;;;;;;;;;5114464;27;20402;-73
2022/11/13 10:52:54;;;;;;;8.45;6.90;;;12.40;99.90;;;;;;5112622;27;21646;-73
2022/11/13 10:55:22;;;;;;;10.52;7.25;;;;;;;;;;5114542;27;20992;-73
2022/11/13 10:57:56;;;;;;;9.73;7.00;;;;;;;;;;5114989;27;20506;-73
2022/11/13 11:00:29;;;;;;;8.25;6.95;;;;;;;;;;5112083;27;20489;-73
2022/11/13 11:02:55;;;;;;;8.52;6.75;;;;;;;;;;5095002;28;20420;-73
2022/11/13 11:05:23;;;;;;;7.75;6.72;;;13.00;99.90;;;;;;5078357;28;20392;-73
2022/11/13 11:07:50;;;;;;;8.82;6.78;;;13.20;99.90;;;;;;5111772;27;20434;-74
2022/11/13 11:10:19;;;;;;;8.88;7.07;;;;;;;;;;5111752;27;20448;-73
2022/11/13 11:12:54;;;;;;;8.40;6.88;;;13.10;99.90;;;;;;5113251;27;20411;-73
2022/11/13 11:15:23;;;;;;;8.25;7.35;;;;;;;;;;5115069;27;20509;-73
2022/11/13 11:18:03;;;;;;;9.60;6.82;;;;;;;;;;5112628;27;20418;-73
2022/11/13 11:20:29;;;;;;;10.15;6.80;;;;;;;;;;5111278;27;20418;-73
2022/11/13 11:23:12;;;;;;;8.53;6.80;;;13.20;99.90;;;;;;5111096;28;20556;-73
2022/11/13 11:25:42;;;;;;;10.60;7.40;;;13.10;99.90;;;;;;5111476;28;20469;-72
2022/11/13 11:28:15;;;;;;;9.80;7.10;;;13.10;99.90;;;;;;5107387;27;20438;-73
2022/11/13 11:30:50;;;;;;;9.05;7.65;;;;;;;;;;5113543;27;20414;-73
2022/11/13 11:33:22;;;;;;;8.48;7.18;;;;;;;;;;5114517;27;20418;-73
2022/11/13 11:35:55;;;;;;;8.27;6.90;;;13.20;99.90;;;;;;5103778;27;20435;-73
2022/11/13 11:38:37;;;;;;;8.68;7.05;;;13.40;99.90;;;;;;5112464;27;20811;-72
2022/11/13 11:41:10;;;;;;;8.40;7.05;;;13.60;99.90;;;;;;5096645;27;20414;-73
2022/11/13 11:43:41;;;;;;;9.23;6.90;;;;;;;;;;5109690;28;20485;-73
2022/11/13 11:46:12;;;;;;;8.95;6.50;;;13.70;99.90;;;;;;5112453;28;20481;-73
2022/11/13 11:48:47;;;;;;;9.95;6.82;;;;;;;;;;5091302;28;20416;-73
2022/11/13 11:51:29;;;;;;;7.60;6.07;;;14.10;99.90;;;;;;5106576;28;20446;-72
2022/11/13 11:54:10;;;;;;;10.32;6.82;;;14.70;99.90;;;;;;5107156;28;20567;-73
2022/11/13 11:56:36;;;;;;;7.80;6.00;;;;;;;;;;5105365;28;20906;-73
2022/11/13 11:59:02;;;;;;;7.95;5.90;;;;;;;;;;5089368;28;20416;-72
2022/11/13 12:01:34;;;;;;;7.22;6.13;;;;;;;;;;5106758;28;20424;-73
2022/11/13 12:03:59;;;;;;;7.05;5.82;;;14.80;99.90;;;;;;5108583;28;20512;-73
2022/11/13 12:06:47;;;;;;;7.32;5.82;;;14.90;99.90;;;;;;5107759;28;20933;-73
2022/11/13 12:09:33;;;;;;;7.57;6.05;;;15.10;99.90;;;;;;5091076;28;20416;-73
2022/11/13 12:12:16;;;;;;;7.15;5.88;;;15.00;99.90;;;;;;5107229;28;20499;-72
2022/11/13 12:15:08;;;;;;;8.07;6.03;;;15.30;99.90;;;;;;5087645;28;20423;-72
2022/11/13 12:17:55;;;;;;;9.30;7.13;;;15.60;99.90;;;;;;5098341;28;20421;-72
2022/11/13 12:20:35;;;;;;;9.75;7.13;;;15.60;99.90;;;;;;5118726;27;20488;-73
2022/11/13 12:23:07;;;;;;;8.75;6.72;;;15.60;99.90;;;;;;5109835;28;20681;-72
2022/11/13 12:25:43;;;;;;;8.27;6.65;;;16.10;99.90;;;;;;5099586;28;20442;-73
2022/11/13 12:28:15;;;;;;;8.68;7.03;;;16.20;99.90;;;;;;5106030;28;20480;-73
2022/11/13 12:31:03;;;;;;;8.60;7.20;;;16.40;99.90;;;;;;5109854;28;20431;-73
2022/11/13 12:33:40;;;;;;;10.82;8.98;;;16.50;99.90;;;;;;5104745;28;20973;-73
2022/11/13 12:36:10;;;;;;;8.68;6.68;;;18.50;99.90;;;;;;5090753;28;20422;-73
2022/11/13 12:39:13;;;;;;;7.57;6.45;;;15.90;99.90;;;;;;5098313;28;20424;-73
2022/11/13 12:41:47;;;;;;;7.22;5.38;;;;;;;;;;5109353;28;20420;-73
2022/11/13 12:44:23;;;;;;;8.32;6.97;;;15.20;99.90;;;;;;5109355;28;20416;-73
2022/11/13 12:46:50;;;;;;;10.05;7.93;;;;;;;;;;5105406;28;21123;-73
2022/11/13 12:49:22;;;;;;;10.25;7.82;;;;;;;;;;5109669;28;20424;-73
2022/11/13 12:52:16;;;;;;;11.13;8.38;;;14.80;99.90;;;;;;5107525;28;20428;-73
2022/11/13 12:54:42;;;;;;;11.80;8.45;;;;;;;;;;5107887;28;20420;-73
2022/11/13 12:57:15;;;;;;;11.67;8.83;;;;;;;;;;5105616;28;20428;-73
2022/11/13 13:00:20;;;;;;;10.70;8.80;;;14.80;99.90;;;;;;5086779;28;20423;-73
2022/11/13 13:03:14;;;;;;;11.27;8.60;;;14.50;99.90;;;;;;5099516;28;20427;-73
2022/11/13 13:06:13;;;;;;;11.73;8.40;;;14.30;99.90;;;;;;5091832;28;20900;-72
2022/11/13 13:08:39;;;;;;;12.27;8.70;;;;;;;;;;5103818;28;20421;-72
2022/11/13 13:11:15;;;;;;;10.32;8.68;;;;;;;;;;5108205;28;20416;-73
2022/11/13 13:13:47;;;;;;;10.70;8.50;;;14.40;99.90;;;;;;5107797;28;20493;-73
2022/11/13 13:16:22;;;;;;;12.55;8.80;;;14.10;99.90;;;;;;5127420;27;20422;-73
2022/11/13 13:18:48;;;;;;;10.98;9.43;;;;;;;;;;5111166;28;20430;-73
2022/11/13 13:21:16;;;;;;;10.98;9.10;;;14.20;99.90;;;;;;5091240;28;20826;-73
2022/11/13 13:23:46;;;;;;;12.18;9.73;;;14.10;99.90;;;;;;5090434;28;20451;-73
2022/11/13 13:26:15;;;;;;;11.90;9.55;;;;;;;;;;5097564;28;20408;-72
2022/11/13 13:28:42;;;;;;;11.65;8.70;;;;;;;;;;5107654;28;20462;-73
2022/11/13 13:31:11;;;;;;;11.63;8.47;;;;;;;;;;5112755;28;20502;-73
2022/11/13 13:33:43;;;;;;;11.63;8.77;;;;;;;;;;5110312;28;20439;-73
2022/11/13 13:36:20;;;;;;;12.23;9.18;;;13.80;99.90;;;;;;5094843;28;20485;-73
2022/11/13 13:39:27;;;;;;;13.35;10.20;;;14.00;99.90;;;;;;5108437;28;20503;-73
2022/11/13 13:42:12;;;;;;;13.27;10.20;;;;;;;;;;5117892;27;20781;-73
2022/11/13 13:44:57;;;;;;;13.13;10.32;;;13.70;99.90;;;;;;5080547;28;20508;-73
2022/11/13 13:47:31;;;;;;;11.70;10.02;;;13.70;99.90;;;;;;5099793;28;20496;-73
2022/11/13 13:49:57;;;;;;;11.67;10.37;;;13.70;99.90;;;;;;5103991;28;20486;-73
2022/11/13 13:52:30;;;;;;;12.70;9.65;;;13.60;99.90;;;;;;5098056;28;21147;-73
2022/11/13 13:54:58;;;;;;;12.40;9.38;;;13.60;99.90;;;;;;5100089;28;20422;-73
2022/11/13 13:57:25;;;;;;;12.20;9.48;;;13.50;99.90;;;;;;5109286;28;20412;-72
2022/11/13 13:59:51;;;;;;;11.18;9.23;;;;;;;;;;5126445;27;20956;-72
2022/11/13 14:02:19;;;;;;;14.05;11.30;;;;;;;;;;5109621;28;20446;-72
2022/11/13 14:04:46;;;;;;;14.32;12.18;;;;;;;;;;5108052;28;20420;-73
2022/11/13 14:07:27;;;;;;;12.57;10.07;;;13.10;99.90;;;;;;5093327;28;20424;-72
2022/11/13 14:10:11;;;;;;;12.50;10.07;;;13.20;99.90;;;;;;5101458;28;20444;-72
2022/11/13 14:12:42;;;;;;;12.13;10.27;;;13.00;99.90;;;;;;5112299;28;20788;-72